Time;durP1;ratioP1;P1;durP2;ratioP2;P2;SDS_P1;SDS_P2;PMS_P1;PMS_P2;Temp;Humidity;BMP_temperature;BMP_pressure;BME280_temperature;BME280_humidity;BME280_pressure;Samples;Min_cycle;Max_cycle;Signal;HPM_P1;HPM_P2
2022/05/24 00:01:31;;;;;;;8.00;7.20;;;16.10;99.90;;;;;;5093170;28;20425;-91
2022/05/24 00:03:59;;;;;;;7.93;7.13;;;16.10;99.90;;;;;;5093179;28;20849;-91
2022/05/24 00:06:28;;;;;;;9.80;7.60;;;16.00;99.90;;;;;;5092768;28;20457;-92
2022/05/24 00:08:55;;;;;;;9.30;7.37;;;16.00;99.90;;;;;;5092706;28;20438;-91
2022/05/24 00:11:22;;;;;;;9.37;7.90;;;16.00;99.90;;;;;;5092735;28;20453;-91
2022/05/24 00:13:51;;;;;;;8.53;7.40;;;16.00;99.90;;;;;;5092457;28;20440;-92
2022/05/24 00:16:19;;;;;;;11.57;7.60;;;16.20;99.90;;;;;;5093923;28;20475;-91
2022/05/24 00:18:47;;;;;;;11.23;7.30;;;16.00;99.90;;;;;;5076440;28;20428;-91
2022/05/24 00:21:14;;;;;;;9.07;7.83;;;15.90;99.90;;;;;;5077074;28;20442;-92
2022/05/24 00:23:41;;;;;;;8.33;7.43;;;16.00;99.90;;;;;;5075895;28;20463;-92
2022/05/24 00:26:10;;;;;;;8.20;7.40;;;16.00;99.90;;;;;;5075939;28;20965;-91
2022/05/24 00:28:37;;;;;;;8.07;7.37;;;16.00;99.90;;;;;;5076353;28;20455;-91
2022/05/24 00:31:06;;;;;;;8.00;7.30;;;16.00;99.90;;;;;;5076012;28;20468;-92
2022/05/24 00:33:34;;;;;;;10.27;7.50;;;15.90;99.90;;;;;;5075779;28;20459;-91
2022/05/24 00:36:02;;;;;;;7.87;7.17;;;15.90;99.90;;;;;;5075933;28;20480;-91
2022/05/24 00:38:33;;;;;;;8.30;7.50;;;15.90;99.90;;;;;;5075742;28;20439;-92
2022/05/24 00:41:12;;;;;;;11.93;8.17;;;15.90;99.90;;;;;;5075944;28;20466;-92
2022/05/24 00:43:43;;;;;;;9.10;8.13;;;15.90;99.90;;;;;;5075769;28;20448;-91
2022/05/24 00:46:16;;;;;;;11.10;8.10;;;15.90;99.90;;;;;;5076129;28;20496;-92
2022/05/24 00:48:49;;;;;;;8.50;7.60;;;15.90;99.90;;;;;;5082346;28;20437;-92
2022/05/24 00:51:23;;;;;;;9.70;6.60;;;15.90;99.90;;;;;;5095798;28;20464;-91
2022/05/24 00:53:54;;;;;;;8.53;7.60;;;15.90;99.90;;;;;;5095858;28;20431;-91
2022/05/24 00:56:35;;;;;;;7.97;6.70;;;15.90;99.90;;;;;;5095939;28;20470;-92
2022/05/24 00:59:06;;;;;;;8.00;6.43;;;15.80;99.90;;;;;;5096442;28;20500;-91
2022/05/24 01:01:38;;;;;;;6.67;5.77;;;15.80;99.90;;;;;;5095789;28;20425;-90
2022/05/24 01:04:06;;;;;;;7.83;6.63;;;15.70;99.90;;;;;;5096198;28;20425;-91
2022/05/24 01:06:33;;;;;;;6.73;6.03;;;15.70;99.90;;;;;;5097910;28;20430;-91
2022/05/24 01:09:01;;;;;;;8.90;6.77;;;15.70;99.90;;;;;;5097545;28;20437;-92
2022/05/24 01:11:30;;;;;;;7.33;6.63;;;15.60;99.90;;;;;;5097845;28;20479;-91
2022/05/24 01:13:59;;;;;;;11.10;6.53;;;15.60;99.90;;;;;;5097454;28;20450;-92
2022/05/24 01:16:26;;;;;;;7.93;6.50;;;15.50;99.90;;;;;;5097649;28;20450;-91
2022/05/24 01:18:54;;;;;;;8.90;6.50;;;15.50;99.90;;;;;;5098087;28;20458;-92
2022/05/24 01:21:22;;;;;;;7.20;6.60;;;15.70;99.90;;;;;;5098278;28;20425;-93
2022/05/24 01:24:09;;;;;;;12.47;6.87;;;15.50;99.90;;;;;;5097111;28;20440;-92
2022/05/24 01:26:47;;;;;;;8.00;7.10;;;15.40;99.90;;;;;;5097462;28;20449;-91
2022/05/24 01:29:14;;;;;;;8.23;6.80;;;15.30;99.90;;;;;;5096010;28;20437;-91
2022/05/24 01:37:12;;;;;;;11.37;8.77;;;15.30;99.90;;;;;;5100304;28;20478;-91
2022/05/24 01:39:40;;;;;;;10.20;8.30;;;15.20;99.90;;;;;;5096002;28;20450;-92
2022/05/24 06:16:08;;;;;;;3.87;2.83;;;14.60;99.90;;;;;;5013595;28;20479;-91
2022/05/24 06:21:24;;;;;;;2.70;2.50;;;14.40;99.90;;;;;;5048344;28;20528;-90
2022/05/24 06:34:04;;;;;;;8.07;2.60;;;14.10;99.90;;;;;;5094345;28;20495;-90
2022/05/24 06:37:04;;;;;;;3.20;2.40;;;14.10;99.90;;;;;;5094882;28;20561;-91
2022/05/24 06:39:38;;;;;;;3.67;2.90;;;14.10;99.90;;;;;;5096042;28;20447;-91
2022/05/24 06:42:07;;;;;;;3.90;2.50;;;14.20;99.90;;;;;;5095936;28;20447;-91
2022/05/24 06:47:14;;;;;;;1.93;1.83;;;;;;;;;;5095515;28;20491;-90
2022/05/24 06:49:42;;;;;;;1.83;1.73;;;14.10;99.90;;;;;;5095940;28;20446;-91
2022/05/24 06:52:10;;;;;;;2.43;2.23;;;14.10;99.90;;;;;;5095648;28;20489;-90
2022/05/24 06:57:24;;;;;;;1.70;1.60;;;14.20;99.90;;;;;;5097187;28;20457;-90
2022/05/24 07:02:36;;;;;;;1.87;1.40;;;;;;;;;;5119436;28;20411;-96
2022/05/24 07:05:06;;;;;;;2.40;1.40;;;14.30;99.90;;;;;;5119212;28;20469;-96
2022/05/24 07:07:36;;;;;;;2.10;1.60;;;14.40;99.90;;;;;;5119315;28;20424;-96
2022/05/24 07:10:05;;;;;;;1.50;1.40;;;14.50;99.90;;;;;;5118804;28;20439;-95
2022/05/24 07:12:33;;;;;;;2.03;1.30;;;;;;;;;;5118037;28;20546;-90
2022/05/24 07:15:00;;;;;;;5.73;1.70;;;;;;;;;;5107971;28;20504;-90
2022/05/24 07:20:16;;;;;;;2.50;1.73;;;14.30;99.90;;;;;;5153129;27;20517;-89
2022/05/24 07:22:43;;;;;;;3.50;1.63;;;14.40;99.90;;;;;;5152915;27;20460;-90
2022/05/24 07:25:10;;;;;;;1.40;1.30;;;14.50;99.90;;;;;;5146711;27;21037;-90
2022/05/24 07:30:19;;;;;;;1.80;1.70;;;;;;;;;;5132385;28;20531;-90
2022/05/24 07:32:47;;;;;;;3.33;1.53;;;14.50;99.90;;;;;;5132697;27;20463;-91
2022/05/24 07:35:15;;;;;;;2.20;2.00;;;14.60;99.90;;;;;;5130496;27;20479;-90
2022/05/24 07:37:42;;;;;;;2.30;1.70;;;14.50;99.90;;;;;;5130614;27;20424;-91
2022/05/24 07:45:49;;;;;;;3.03;1.90;;;14.80;99.90;;;;;;5130568;27;20423;-92
2022/05/24 07:48:16;;;;;;;2.13;1.70;;;14.70;99.90;;;;;;5130781;28;20873;-91
2022/05/24 07:50:44;;;;;;;1.70;1.60;;;14.70;99.90;;;;;;5130438;28;20424;-91
2022/05/24 07:53:11;;;;;;;1.60;1.50;;;14.70;99.90;;;;;;5130473;28;20459;-90
2022/05/24 07:58:21;;;;;;;3.00;1.70;;;14.90;99.90;;;;;;5111075;27;20552;-93
2022/05/24 08:00:48;;;;;;;4.53;1.70;;;14.70;99.90;;;;;;5111074;28;20490;-91
2022/05/24 08:03:15;;;;;;;1.60;1.50;;;14.80;99.90;;;;;;5110651;28;20450;-90
2022/05/24 08:05:42;;;;;;;2.00;1.70;;;14.60;99.90;;;;;;5110652;28;20453;-91
2022/05/24 08:08:10;;;;;;;2.23;1.70;;;14.80;99.90;;;;;;5112211;28;20472;-91
2022/05/24 08:10:39;;;;;;;3.23;1.97;;;14.90;99.90;;;;;;5111065;28;20457;-91
2022/05/24 08:13:09;;;;;;;1.50;1.40;;;15.00;99.90;;;;;;5111792;28;20416;-94
2022/05/24 08:15:37;;;;;;;1.70;1.60;;;15.20;99.90;;;;;;5113592;28;20448;-91
2022/05/24 08:18:04;;;;;;;1.97;1.60;;;15.30;99.90;;;;;;5110647;28;20452;-91
2022/05/24 08:20:33;;;;;;;1.90;1.80;;;15.30;99.90;;;;;;5110152;28;20413;-91
2022/05/24 08:23:00;;;;;;;1.70;1.60;;;15.20;99.90;;;;;;5110427;28;20432;-89
2022/05/24 08:25:30;;;;;;;1.60;1.47;;;15.10;99.90;;;;;;5110096;28;20488;-91
2022/05/24 08:27:58;;;;;;;1.77;1.60;;;15.00;99.90;;;;;;5110133;28;20839;-91
2022/05/24 08:30:25;;;;;;;1.50;1.40;;;15.00;99.90;;;;;;5110165;28;20420;-90
2022/05/24 08:32:56;;;;;;;2.30;1.60;;;14.70;99.90;;;;;;5110600;28;20829;-91
2022/05/24 08:35:23;;;;;;;3.40;1.20;;;14.60;99.90;;;;;;5110390;28;20452;-91
2022/05/24 08:37:50;;;;;;;3.37;1.50;;;14.60;99.90;;;;;;5111005;28;20474;-90
2022/05/24 08:40:22;;;;;;;2.20;1.63;;;14.40;99.90;;;;;;5110139;28;20454;-90
2022/05/24 08:43:03;;;;;;;1.90;1.67;;;14.50;99.90;;;;;;5110036;28;20458;-91
2022/05/24 08:48:26;;;;;;;3.10;1.53;;;14.60;99.90;;;;;;5079951;28;20476;-90
2022/05/24 08:50:59;;;;;;;1.70;1.60;;;14.60;99.90;;;;;;5088736;28;20852;-91
2022/05/24 08:53:36;;;;;;;1.70;1.60;;;14.80;99.90;;;;;;5089055;28;20501;-91
2022/05/24 08:56:06;;;;;;;2.50;1.50;;;15.10;99.90;;;;;;5096404;28;20544;-90
2022/05/24 08:58:37;;;;;;;3.60;1.70;;;15.30;99.90;;;;;;5109464;28;20429;-90
2022/05/24 09:01:06;;;;;;;2.10;1.90;;;15.60;99.90;;;;;;5109408;28;20457;-91
2022/05/24 09:03:39;;;;;;;1.37;1.27;;;16.00;99.90;;;;;;5109278;28;20449;-92
2022/05/24 09:06:11;;;;;;;2.17;1.40;;;16.40;99.90;;;;;;5109495;28;20452;-93
2022/05/24 09:08:47;;;;;;;2.50;1.43;;;16.70;99.90;;;;;;5101787;28;20425;-90
2022/05/24 09:11:21;;;;;;;1.60;1.50;;;16.80;99.90;;;;;;5095617;28;20995;-92
2022/05/24 09:14:11;;;;;;;1.20;1.10;;;17.10;99.90;;;;;;5088608;28;20512;-90
2022/05/24 09:16:49;;;;;;;1.10;1.00;;;17.30;99.90;;;;;;5090600;28;20457;-91
2022/05/24 09:19:26;;;;;;;1.60;1.50;;;17.20;99.90;;;;;;5095803;28;20458;-89
2022/05/24 09:21:53;;;;;;;1.90;1.37;;;16.90;99.90;;;;;;5097358;28;20425;-91
2022/05/24 09:24:30;;;;;;;1.30;1.20;;;16.60;99.90;;;;;;5095308;28;20457;-90
2022/05/24 09:27:06;;;;;;;2.03;1.27;;;16.50;99.90;;;;;;5095360;28;20424;-93
2022/05/24 09:29:33;;;;;;;2.07;1.30;;;16.40;99.90;;;;;;5091215;28;20476;-89
2022/05/24 09:32:09;;;;;;;1.30;1.20;;;16.30;99.90;;;;;;5074924;28;20426;-91
2022/05/24 09:34:38;;;;;;;1.20;1.10;;;16.30;99.90;;;;;;5074265;28;20466;-90
2022/05/24 09:37:09;;;;;;;1.30;1.20;;;16.30;99.90;;;;;;5074803;28;20485;-90
2022/05/24 09:39:39;;;;;;;1.77;1.50;;;16.30;99.90;;;;;;5074870;28;20539;-91
2022/05/24 09:42:10;;;;;;;1.97;1.30;;;16.40;99.90;;;;;;5074453;28;20414;-92
2022/05/24 09:44:47;;;;;;;1.30;1.20;;;16.40;99.90;;;;;;5074263;28;20418;-91
2022/05/24 09:47:26;;;;;;;2.33;1.37;;;16.50;99.90;;;;;;5083620;28;20425;-90
2022/05/24 09:49:54;;;;;;;1.40;1.30;;;16.40;99.90;;;;;;5094511;28;20458;-90
2022/05/24 09:52:22;;;;;;;1.33;1.23;;;16.40;99.90;;;;;;5094645;28;20433;-90
2022/05/24 09:54:55;;;;;;;2.20;1.43;;;16.40;99.90;;;;;;5094659;28;20482;-92
2022/05/24 09:57:25;;;;;;;1.40;1.30;;;16.50;99.90;;;;;;5094504;28;20787;-90
2022/05/24 10:00:01;;;;;;;1.40;1.23;;;16.40;99.90;;;;;;5095120;28;20459;-90
2022/05/24 10:02:31;;;;;;;1.60;1.43;;;16.30;99.90;;;;;;5094531;28;20468;-90
2022/05/24 10:05:00;;;;;;;3.00;1.10;;;16.30;99.90;;;;;;5094867;28;20470;-90
2022/05/24 10:07:30;;;;;;;2.10;1.27;;;16.70;99.90;;;;;;5094495;28;20871;-90
2022/05/24 10:10:10;;;;;;;1.30;1.20;;;16.80;99.90;;;;;;5094514;28;20410;-90
2022/05/24 10:12:48;;;;;;;3.33;1.30;;;16.80;99.90;;;;;;5094224;28;20548;-91
2022/05/24 10:15:23;;;;;;;1.30;1.20;;;17.00;99.90;;;;;;5094957;28;20456;-90
2022/05/24 10:18:03;;;;;;;2.90;1.23;;;17.10;99.90;;;;;;5079869;28;20471;-91
2022/05/24 10:20:39;;;;;;;3.03;1.20;;;17.20;99.90;;;;;;5073770;28;20412;-90
2022/05/24 10:23:12;;;;;;;4.43;1.50;;;17.50;99.90;;;;;;5074516;28;20445;-91
2022/05/24 10:25:45;;;;;;;3.70;1.40;;;17.90;99.90;;;;;;5073939;28;20860;-90
2022/05/24 10:28:21;;;;;;;2.40;1.23;;;18.10;99.90;;;;;;5074016;28;20825;-91
2022/05/24 10:30:56;;;;;;;3.67;1.23;;;17.90;99.90;;;;;;5073807;28;20466;-89
2022/05/24 10:39:55;;;;;;;3.33;1.37;;;18.10;99.90;;;;;;5073354;28;20975;-90
2022/05/24 10:42:33;;;;;;;1.50;1.40;;;18.30;99.90;;;;;;5031234;28;20457;-91
2022/05/24 10:45:05;;;;;;;3.23;1.63;;;18.90;99.90;;;;;;5066404;28;20820;-91
2022/05/24 10:47:40;;;;;;;1.37;1.23;;;19.30;99.90;;;;;;5073530;28;20487;-93
2022/05/24 10:50:11;;;;;;;2.93;1.50;;;19.10;99.90;;;;;;5073209;28;20532;-91
2022/05/24 10:52:46;;;;;;;4.10;1.43;;;19.10;99.90;;;;;;5073157;28;20456;-91
2022/05/24 10:55:19;;;;;;;2.33;1.30;;;19.40;99.90;;;;;;5072800;28;20490;-91
2022/05/24 10:57:53;;;;;;;2.10;1.30;;;19.70;99.90;;;;;;5072994;28;20483;-90
2022/05/24 11:00:23;;;;;;;1.40;1.30;;;19.90;99.90;;;;;;5073084;28;20780;-90
2022/05/24 11:02:58;;;;;;;1.70;1.37;;;19.90;99.90;;;;;;5073244;28;20532;-90
2022/05/24 11:05:28;;;;;;;3.00;2.00;;;20.30;99.90;;;;;;5072698;28;20456;-91
2022/05/24 11:08:02;;;;;;;3.37;1.37;;;20.40;99.90;;;;;;5072783;28;20447;-93
2022/05/24 11:10:34;;;;;;;2.40;1.30;;;20.50;99.90;;;;;;5072695;28;20434;-90
2022/05/24 11:13:09;;;;;;;1.43;1.30;;;20.50;99.90;;;;;;5072612;28;20464;-90
2022/05/24 11:15:40;;;;;;;1.20;1.10;;;20.60;99.90;;;;;;5072551;28;20479;-90
2022/05/24 11:18:14;;;;;;;2.67;1.00;;;20.30;99.90;;;;;;5088849;28;20481;-90
2022/05/24 11:20:46;;;;;;;1.60;1.50;;;20.40;99.90;;;;;;5092964;28;20447;-90
2022/05/24 11:23:18;;;;;;;3.27;1.10;;;20.10;99.90;;;;;;5092804;28;20463;-90
2022/05/24 11:25:51;;;;;;;7.60;1.60;;;19.80;99.90;;;;;;5092768;28;20447;-91
2022/05/24 11:28:26;;;;;;;1.60;1.20;;;19.70;99.90;;;;;;5092849;28;20465;-91
2022/05/24 11:30:54;;;;;;;3.53;1.20;;;19.50;99.90;;;;;;5092307;28;20409;-92
2022/05/24 11:33:36;;;;;;;1.40;1.10;;;19.50;99.90;;;;;;5092630;28;20436;-91
2022/05/24 11:36:36;;;;;;;1.70;1.17;;;19.50;99.90;;;;;;5092661;28;20470;-90
2022/05/24 11:39:17;;;;;;;2.63;1.20;;;19.50;99.90;;;;;;5092601;28;20474;-90
2022/05/24 11:41:45;;;;;;;2.70;1.50;;;19.50;99.90;;;;;;5093071;28;20427;-90
2022/05/24 11:44:31;;;;;;;1.93;1.17;;;19.70;99.90;;;;;;5092987;28;20535;-91
2022/05/24 11:46:58;;;;;;;3.53;1.20;;;19.70;99.90;;;;;;5092898;28;20442;-90
2022/05/24 11:50:05;;;;;;;1.23;1.10;;;19.80;99.90;;;;;;5092211;28;20915;-90
2022/05/24 11:52:44;;;;;;;1.60;1.23;;;19.70;99.90;;;;;;5092668;28;20432;-92
2022/05/24 11:55:44;;;;;;;4.60;1.40;;;20.10;99.90;;;;;;5092736;28;20481;-91
2022/05/24 11:58:48;;;;;;;2.33;1.30;;;20.40;99.90;;;;;;5092874;28;20482;-90
2022/05/24 12:01:54;;;;;;;1.30;1.20;;;20.60;99.90;;;;;;5092642;28;20451;-91
2022/05/24 12:10:52;;;;;;;4.17;1.23;;;20.50;99.90;;;;;;5092827;28;20472;-90
2022/05/24 12:13:41;;;;;;;2.37;1.40;;;20.50;99.90;;;;;;5092773;28;20446;-89
2022/05/24 12:16:33;;;;;;;1.60;1.30;;;20.90;99.90;;;;;;5092607;28;20481;-91
2022/05/24 12:19:03;;;;;;;2.63;1.20;;;21.30;99.90;;;;;;5072050;28;20856;-90
2022/05/24 12:22:01;;;;;;;1.27;1.00;;;21.60;99.90;;;;;;5082451;28;20455;-90
2022/05/24 12:25:02;;;;;;;5.27;1.33;;;22.00;99.90;;;;;;5080136;28;20489;-92
2022/05/24 12:27:43;;;;;;;1.60;1.10;;;21.80;99.90;;;;;;5092509;28;20456;-91
2022/05/24 12:30:39;;;;;;;2.80;1.07;;;21.80;99.90;;;;;;5092392;28;20476;-91
2022/05/24 12:33:34;;;;;;;8.10;1.03;;;21.80;99.90;;;;;;5092477;28;20479;-90
2022/05/24 12:36:19;;;;;;;2.10;1.60;;;21.60;99.90;;;;;;5092308;28;20482;-90
2022/05/24 12:38:50;;;;;;;7.90;1.53;;;21.20;99.90;;;;;;5091879;28;20485;-90
2022/05/24 12:41:25;;;;;;;1.60;0.80;;;21.30;99.90;;;;;;5092367;28;20511;-90
2022/05/24 12:43:57;;;;;;;2.50;1.00;;;21.60;99.90;;;;;;5094234;28;20881;-91
2022/05/24 12:46:29;;;;;;;1.10;0.80;;;21.50;99.90;;;;;;5095980;28;20493;-91
2022/05/24 12:49:03;;;;;;;2.07;0.90;;;21.30;99.90;;;;;;5095539;28;20457;-90
2022/05/24 12:51:29;;;;;;;3.77;0.80;;;21.50;99.90;;;;;;5095941;28;20829;-91
2022/05/24 12:54:08;;;;;;;1.10;0.90;;;21.70;99.90;;;;;;5096042;28;20461;-90
2022/05/24 12:56:34;;;;;;;1.30;0.80;;;22.10;99.90;;;;;;5096005;28;20477;-91
2022/05/24 12:59:10;;;;;;;1.60;1.00;;;21.50;99.90;;;;;;5097371;28;20490;-90
2022/05/24 13:01:41;;;;;;;1.10;0.97;;;20.90;99.90;;;;;;5096016;28;20446;-91
2022/05/24 13:04:15;;;;;;;1.40;1.07;;;21.10;99.90;;;;;;5095638;28;20454;-91
2022/05/24 13:06:44;;;;;;;1.10;0.93;;;21.40;99.90;;;;;;5095652;28;20482;-90
2022/05/24 13:09:21;;;;;;;2.07;1.10;;;21.30;99.90;;;;;;5095578;28;20508;-90
2022/05/24 13:11:51;;;;;;;1.83;1.07;;;21.30;99.90;;;;;;5095454;28;20461;-90
2022/05/24 13:14:48;;;;;;;2.00;1.10;;;21.20;99.90;;;;;;5095544;28;20486;-90
2022/05/24 13:17:18;;;;;;;1.50;1.00;;;21.50;99.90;;;;;;5095567;28;20459;-90
2022/05/24 13:19:47;;;;;;;3.77;1.10;;;21.70;99.90;;;;;;5095438;28;20506;-90
2022/05/24 13:22:15;;;;;;;2.30;1.07;;;21.20;99.90;;;;;;5095284;28;20505;-90
2022/05/24 13:24:58;;;;;;;4.00;1.27;;;20.90;99.90;;;;;;5095485;28;20945;-93
2022/05/24 13:27:26;;;;;;;4.50;1.43;;;20.50;99.90;;;;;;5095382;28;20461;-90
2022/05/24 13:35:32;;;;;;;1.30;1.13;;;20.10;99.90;;;;;;5095275;28;20472;-91
2022/05/24 13:38:02;;;;;;;1.77;1.30;;;20.40;99.90;;;;;;5096396;28;20496;-90
2022/05/24 13:40:41;;;;;;;1.73;1.20;;;20.80;99.90;;;;;;5094957;28;20486;-90
2022/05/24 13:43:09;;;;;;;4.50;1.43;;;21.00;99.90;;;;;;5095093;28;20458;-90
2022/05/24 13:45:38;;;;;;;1.50;1.03;;;21.40;99.90;;;;;;5095640;28;20455;-90
2022/05/24 13:48:24;;;;;;;2.67;1.23;;;21.10;99.90;;;;;;5095961;28;20443;-90
2022/05/24 13:50:51;;;;;;;2.27;1.40;;;21.00;99.90;;;;;;5095271;28;20451;-92
2022/05/24 13:53:35;;;;;;;1.50;1.40;;;20.90;99.90;;;;;;5095436;28;20934;-90
2022/05/24 13:56:04;;;;;;;2.13;1.30;;;20.80;99.90;;;;;;5095721;28;20470;-91
2022/05/24 13:58:35;;;;;;;2.80;1.30;;;20.90;99.90;;;;;;5095783;28;20484;-90
2022/05/24 14:01:06;;;;;;;1.40;1.10;;;20.80;99.90;;;;;;5096117;28;20458;-90
2022/05/24 14:03:47;;;;;;;1.40;1.30;;;20.90;99.90;;;;;;5095679;28;20485;-90
2022/05/24 14:06:16;;;;;;;4.10;1.50;;;21.10;99.90;;;;;;5096123;28;20485;-90
2022/05/24 14:08:44;;;;;;;3.43;1.40;;;20.80;99.90;;;;;;5097828;28;20455;-90
2022/05/24 14:11:14;;;;;;;4.40;1.30;;;21.00;99.90;;;;;;5099054;28;20455;-90
2022/05/24 14:13:41;;;;;;;1.87;1.40;;;21.20;99.90;;;;;;5095470;28;20485;-90
2022/05/24 14:16:10;;;;;;;3.33;1.00;;;21.50;99.90;;;;;;5095484;28;20904;-91
2022/05/24 14:18:37;;;;;;;3.03;1.53;;;21.80;99.90;;;;;;5075811;28;20502;-90
2022/05/24 14:21:05;;;;;;;2.53;1.30;;;21.60;99.90;;;;;;5075686;28;20443;-90
2022/05/24 14:23:32;;;;;;;1.73;1.20;;;21.70;99.90;;;;;;5075070;28;20529;-90
2022/05/24 14:25:59;;;;;;;3.93;1.10;;;21.90;99.90;;;;;;5075085;28;20467;-90
2022/05/24 14:28:26;;;;;;;2.30;1.30;;;21.90;99.90;;;;;;5074886;28;20452;-90
2022/05/24 14:30:53;;;;;;;2.80;1.27;;;21.90;99.90;;;;;;5075133;28;21004;-90
2022/05/24 14:33:22;;;;;;;4.03;2.27;;;22.10;99.90;;;;;;5074400;28;20452;-91
2022/05/24 14:35:50;;;;;;;1.60;1.40;;;22.10;99.90;;;;;;5073651;28;20999;-90
2022/05/24 14:38:17;;;;;;;1.50;1.33;;;22.10;99.90;;;;;;5073951;28;20475;-91
2022/05/24 14:40:48;;;;;;;1.87;1.10;;;22.10;99.90;;;;;;5073806;28;20452;-90
2022/05/24 14:43:20;;;;;;;2.50;1.33;;;22.00;99.90;;;;;;5073550;28;20878;-91
2022/05/24 14:45:47;;;;;;;1.20;1.03;;;21.80;99.90;;;;;;5073902;28;20566;-91
2022/05/24 14:48:13;;;;;;;4.17;1.43;;;21.60;99.90;;;;;;5073487;28;20451;-90
2022/05/24 14:50:41;;;;;;;1.40;1.20;;;21.70;99.90;;;;;;5073494;28;20451;-90
2022/05/24 14:53:09;;;;;;;6.20;1.53;;;21.60;99.90;;;;;;5073356;28;20455;-90
2022/05/24 14:55:36;;;;;;;2.30;1.30;;;21.60;99.90;;;;;;5073535;28;20471;-90
2022/05/24 14:58:03;;;;;;;2.17;1.47;;;21.30;99.90;;;;;;5073728;28;20459;-90
2022/05/24 15:00:32;;;;;;;1.67;1.10;;;21.40;99.90;;;;;;5073172;28;20458;-90
2022/05/24 15:02:59;;;;;;;6.00;1.27;;;21.00;99.90;;;;;;5073413;28;20920;-93
2022/05/24 15:05:26;;;;;;;1.70;1.30;;;20.80;99.90;;;;;;5072496;28;20553;-89
2022/05/24 15:16:10;;;;;;;2.43;1.10;;;20.10;99.90;;;;;;5072959;28;20502;-91
2022/05/24 15:18:37;;;;;;;1.80;1.20;;;20.20;99.90;;;;;;5094566;28;20474;-91
2022/05/24 15:21:04;;;;;;;3.13;1.30;;;20.40;99.90;;;;;;5094148;28;20455;-91
2022/05/24 15:23:34;;;;;;;1.17;1.07;;;20.70;99.90;;;;;;5094077;28;20826;-90
2022/05/24 15:26:06;;;;;;;13.00;1.07;;;20.30;99.90;;;;;;5093975;28;20848;-90
2022/05/24 15:28:35;;;;;;;4.27;1.10;;;20.30;99.90;;;;;;5094742;28;20428;-90
2022/05/24 15:31:01;;;;;;;2.70;1.00;;;20.20;99.90;;;;;;5094344;28;20433;-92
2022/05/24 15:33:29;;;;;;;4.50;1.00;;;20.20;99.90;;;;;;5094832;28;20455;-91
2022/05/24 15:35:56;;;;;;;2.90;1.00;;;;;;;;;;5094783;28;20478;-91
2022/05/24 15:38:23;;;;;;;2.07;1.20;;;20.30;99.90;;;;;;5095407;28;20450;-91
2022/05/24 15:40:51;;;;;;;3.13;1.13;;;20.40;99.90;;;;;;5094047;28;20450;-91
2022/05/24 15:43:18;;;;;;;1.60;1.07;;;20.00;99.90;;;;;;5094161;28;20968;-91
2022/05/24 15:45:47;;;;;;;1.40;1.10;;;19.90;99.90;;;;;;5094578;28;20486;-91
2022/05/24 15:48:14;;;;;;;1.70;1.20;;;20.10;99.90;;;;;;5094788;28;20463;-90
2022/05/24 15:50:41;;;;;;;3.47;1.17;;;20.10;99.90;;;;;;5094334;28;20537;-91
2022/05/24 15:53:08;;;;;;;2.80;0.90;;;20.00;99.90;;;;;;5093889;28;20458;-91
2022/05/24 15:55:34;;;;;;;2.93;1.10;;;20.00;99.90;;;;;;5094096;28;20482;-91
2022/05/24 15:58:02;;;;;;;1.90;1.10;;;19.90;99.90;;;;;;5094142;28;20466;-92
2022/05/24 16:00:30;;;;;;;1.40;1.20;;;19.90;99.90;;;;;;5093591;28;20482;-91
2022/05/24 16:02:57;;;;;;;2.00;1.20;;;19.90;99.90;;;;;;5094177;28;20473;-90
2022/05/24 16:10:55;;;;;;;2.30;1.20;;;20.10;99.90;;;;;;5093756;28;20414;-91
2022/05/24 16:13:24;;;;;;;4.33;1.20;;;19.90;99.90;;;;;;5093784;28;20454;-91
2022/05/24 16:15:54;;;;;;;3.53;1.33;;;20.00;99.90;;;;;;5093880;28;20501;-91
2022/05/24 16:18:22;;;;;;;1.57;1.13;;;20.00;99.90;;;;;;5076787;28;20456;-91
2022/05/24 16:20:50;;;;;;;1.57;1.00;;;20.00;99.90;;;;;;5082816;28;20446;-91
2022/05/24 16:23:19;;;;;;;1.40;1.03;;;19.80;99.90;;;;;;5100403;28;20545;-92
2022/05/24 16:25:47;;;;;;;1.53;0.97;;;19.70;99.90;;;;;;5103345;28;20470;-90
2022/05/24 16:28:14;;;;;;;2.17;1.27;;;19.70;99.90;;;;;;5106288;28;20460;-91
2022/05/24 16:30:42;;;;;;;4.20;1.00;;;19.50;99.90;;;;;;5103058;28;20504;-91
2022/05/24 16:33:10;;;;;;;2.43;1.23;;;19.30;99.90;;;;;;5099108;28;20455;-91
2022/05/24 16:35:37;;;;;;;2.40;1.23;;;19.30;99.90;;;;;;5098016;28;20480;-91
2022/05/24 16:38:05;;;;;;;1.67;1.10;;;19.30;99.90;;;;;;5097805;28;20459;-91
2022/05/24 16:40:33;;;;;;;1.77;1.10;;;19.40;99.90;;;;;;5100582;28;20482;-92
2022/05/24 16:42:59;;;;;;;1.33;1.10;;;19.40;99.90;;;;;;5108373;28;20438;-96
2022/05/24 16:45:27;;;;;;;1.93;1.10;;;19.50;99.90;;;;;;5121668;28;20467;-95
2022/05/24 16:47:55;;;;;;;1.87;1.30;;;19.40;99.90;;;;;;5121034;28;20450;-95
2022/05/24 16:50:22;;;;;;;1.10;1.00;;;19.40;99.90;;;;;;5120710;28;20438;-93
2022/05/24 16:52:49;;;;;;;2.43;1.77;;;19.20;99.90;;;;;;5120896;28;20439;-95
2022/05/24 17:00:46;;;;;;;1.90;1.30;;;18.90;99.90;;;;;;5121153;28;20497;-95
2022/05/24 17:03:14;;;;;;;2.77;1.20;;;18.80;99.90;;;;;;5116629;28;20451;-90
2022/05/24 17:05:41;;;;;;;1.50;1.20;;;18.70;99.90;;;;;;5105610;28;20449;-89
2022/05/24 17:08:10;;;;;;;1.40;1.30;;;18.50;99.90;;;;;;5097753;28;20446;-90
2022/05/24 17:10:37;;;;;;;1.60;1.20;;;18.40;99.90;;;;;;5097165;28;20442;-90
2022/05/24 17:13:08;;;;;;;1.43;1.23;;;18.50;99.90;;;;;;5096746;28;20424;-90
2022/05/24 17:15:35;;;;;;;2.83;1.27;;;18.40;99.90;;;;;;5096975;28;20467;-89
2022/05/24 17:18:02;;;;;;;4.50;1.40;;;18.30;99.90;;;;;;5096952;28;20410;-90
2022/05/24 17:20:32;;;;;;;4.60;1.90;;;18.10;99.90;;;;;;5095062;28;20485;-90
2022/05/24 17:22:59;;;;;;;1.40;1.30;;;17.90;99.90;;;;;;5077250;28;20414;-88
2022/05/24 17:25:26;;;;;;;1.67;1.37;;;17.90;99.90;;;;;;5076583;28;20457;-89
2022/05/24 17:27:53;;;;;;;2.40;1.20;;;18.00;99.90;;;;;;5077184;28;20432;-89
2022/05/24 17:30:24;;;;;;;1.40;1.30;;;18.00;99.90;;;;;;5076373;28;20410;-90
2022/05/24 17:32:55;;;;;;;3.93;1.40;;;18.00;99.90;;;;;;5076715;28;20485;-91
2022/05/24 17:35:22;;;;;;;4.20;1.40;;;17.80;99.90;;;;;;5076145;28;21053;-90
2022/05/24 17:37:50;;;;;;;2.53;1.30;;;17.70;99.90;;;;;;5076433;28;20426;-89
2022/05/24 17:40:17;;;;;;;1.73;1.57;;;17.70;99.90;;;;;;5075789;28;20454;-90
2022/05/24 17:42:46;;;;;;;3.00;1.50;;;17.70;99.90;;;;;;5077627;28;20441;-90
2022/05/24 17:45:17;;;;;;;3.73;1.43;;;17.60;99.90;;;;;;5077095;28;20821;-89
2022/05/24 17:47:44;;;;;;;1.87;1.20;;;17.50;99.90;;;;;;5080076;28;20501;-88
2022/05/24 17:50:11;;;;;;;1.50;1.37;;;17.50;99.90;;;;;;5076920;28;20451;-89
2022/05/24 17:52:38;;;;;;;2.80;1.30;;;17.50;99.90;;;;;;5076254;28;20463;-89
2022/05/24 17:55:06;;;;;;;3.43;1.13;;;17.50;99.90;;;;;;5075030;28;20954;-88
2022/05/24 17:57:33;;;;;;;1.40;1.30;;;17.40;99.90;;;;;;5075114;28;20463;-89
2022/05/24 18:00:00;;;;;;;4.40;1.50;;;17.40;99.90;;;;;;5075026;28;20487;-89
2022/05/24 18:02:27;;;;;;;4.80;1.50;;;17.40;99.90;;;;;;5076195;28;20440;-90
2022/05/24 18:04:53;;;;;;;1.87;1.33;;;17.20;99.90;;;;;;5076211;28;20446;-90
2022/05/24 18:07:20;;;;;;;2.47;1.40;;;17.10;99.90;;;;;;5076779;28;20435;-89
2022/05/24 18:09:47;;;;;;;2.60;1.50;;;17.10;99.90;;;;;;5076539;28;20418;-89
2022/05/24 18:12:15;;;;;;;4.77;1.73;;;17.00;99.90;;;;;;5076239;28;20418;-91
2022/05/24 18:14:41;;;;;;;1.60;1.20;;;17.00;99.90;;;;;;5075771;28;21021;-90
2022/05/24 18:17:09;;;;;;;3.00;1.70;;;17.00;99.90;;;;;;5084929;28;20421;-89
2022/05/24 18:19:37;;;;;;;3.00;1.63;;;16.90;99.90;;;;;;5098176;28;20506;-92
2022/05/24 18:22:11;;;;;;;1.80;1.33;;;17.00;99.90;;;;;;5095613;28;20509;-90
2022/05/24 18:24:42;;;;;;;2.03;1.73;;;16.80;99.90;;;;;;5095253;28;20462;-89
2022/05/24 18:33:07;;;;;;;7.50;1.50;;;16.70;99.90;;;;;;5032067;28;20418;-92
2022/05/24 18:35:36;;;;;;;3.20;1.33;;;16.70;99.90;;;;;;5069294;28;20449;-89
2022/05/24 18:38:03;;;;;;;1.30;1.20;;;16.70;99.90;;;;;;5095251;28;20864;-89
2022/05/24 18:40:30;;;;;;;1.57;1.20;;;16.60;99.90;;;;;;5095115;28;20464;-89
2022/05/24 18:42:58;;;;;;;1.70;1.60;;;16.60;99.90;;;;;;5094345;28;20480;-89
2022/05/24 18:45:25;;;;;;;1.63;1.30;;;16.60;99.90;;;;;;5094635;28;20462;-90
2022/05/24 18:47:52;;;;;;;6.60;1.67;;;16.50;99.90;;;;;;5095671;28;20429;-90
2022/05/24 18:50:19;;;;;;;1.70;1.60;;;16.40;99.90;;;;;;5095043;28;20429;-90
2022/05/24 18:52:46;;;;;;;1.67;1.30;;;16.40;99.90;;;;;;5094608;28;20459;-90
2022/05/24 18:55:13;;;;;;;3.23;1.60;;;;;;;;;;5094280;28;20466;-89
2022/05/24 18:57:40;;;;;;;1.73;1.40;;;16.30;99.90;;;;;;5094214;28;20463;-89
2022/05/24 19:00:10;;;;;;;1.43;1.33;;;16.20;99.90;;;;;;5094198;28;20551;-89
2022/05/24 19:02:37;;;;;;;1.77;1.67;;;16.10;99.90;;;;;;5094691;28;20524;-90
2022/05/24 19:05:05;;;;;;;1.37;1.27;;;16.10;99.90;;;;;;5094289;28;20503;-89
2022/05/24 19:07:32;;;;;;;1.93;1.60;;;16.00;99.90;;;;;;5093735;28;20457;-90
2022/05/24 19:10:01;;;;;;;1.87;1.50;;;16.00;99.90;;;;;;5094556;28;20461;-91